createdAt,value
2022-11-16T00:00:22.629Z,7.57
2022-11-16T00:02:51.897Z,7.60
2022-11-16T00:05:23.060Z,7.58
2022-11-16T00:07:52.455Z,7.61
2022-11-16T00:10:19.303Z,7.61
2022-11-16T00:12:46.178Z,7.53
2022-11-16T00:15:13.007Z,7.40
2022-11-16T00:17:39.813Z,7.36
2022-11-16T00:20:07.266Z,7.26
2022-11-16T00:22:34.084Z,7.25
2022-11-16T00:25:00.851Z,7.35
2022-11-16T00:27:27.715Z,7.33
2022-11-16T00:29:54.582Z,7.37
2022-11-16T00:32:21.446Z,7.38
2022-11-16T00:34:48.302Z,7.39
2022-11-16T00:37:15.093Z,7.42
2022-11-16T00:39:41.913Z,7.32
2022-11-16T00:42:08.808Z,7.36
2022-11-16T00:44:35.811Z,7.41
2022-11-16T00:47:02.625Z,7.31
2022-11-16T00:49:29.520Z,7.17
2022-11-16T00:51:56.318Z,7.24
2022-11-16T00:54:23.157Z,7.20
2022-11-16T00:56:49.943Z,7.26
2022-11-16T00:59:16.949Z,7.28
2022-11-16T01:01:43.931Z,7.34
2022-11-16T01:04:10.880Z,7.40
2022-11-16T01:06:37.724Z,7.38
2022-11-16T01:09:04.644Z,7.42
2022-11-16T01:11:49.982Z,7.45
2022-11-16T01:14:16.896Z,7.49
2022-11-16T01:16:43.663Z,7.49
2022-11-16T01:19:10.710Z,7.54
2022-11-16T01:21:45.121Z,7.49
2022-11-16T01:24:11.859Z,7.40
2022-11-16T01:26:38.762Z,7.48
2022-11-16T01:29:05.575Z,7.55
2022-11-16T01:31:32.389Z,7.54
2022-11-16T01:33:59.255Z,7.55
2022-11-16T01:36:26.057Z,7.53
2022-11-16T01:38:52.937Z,7.49
2022-11-16T01:41:22.111Z,7.52
2022-11-16T01:43:55.542Z,7.54
2022-11-16T01:46:22.948Z,7.52
2022-11-16T01:48:58.740Z,7.45
2022-11-16T01:51:25.855Z,7.40
2022-11-16T01:53:52.775Z,7.39
2022-11-16T01:56:20.568Z,7.40
2022-11-16T01:58:47.453Z,7.44
2022-11-16T02:01:14.384Z,7.41
2022-11-16T02:03:41.514Z,7.41
2022-11-16T02:06:20.239Z,7.29
2022-11-16T02:09:19.543Z,7.40
2022-11-16T02:12:01.577Z,7.45
2022-11-16T02:15:08.642Z,7.48
2022-11-16T02:18:16.950Z,7.50
2022-11-16T02:21:11.306Z,7.53
2022-11-16T02:23:49.887Z,7.55
2022-11-16T02:26:47.038Z,7.49
2022-11-16T02:29:21.053Z,7.48
2022-11-16T02:31:51.626Z,7.50
2022-11-16T02:34:20.234Z,7.53
2022-11-16T02:36:49.211Z,7.53
2022-11-16T02:39:20.017Z,7.53
2022-11-16T02:41:48.551Z,7.56
2022-11-16T02:44:33.244Z,7.55
2022-11-16T02:47:05.051Z,7.53
2022-11-16T02:49:35.398Z,7.48
2022-11-16T02:52:02.362Z,7.47
2022-11-16T02:54:29.239Z,7.50
2022-11-16T02:57:05.184Z,7.47
2022-11-16T02:59:41.982Z,7.40
2022-11-16T03:02:27.014Z,7.43
2022-11-16T03:05:00.140Z,7.47
2022-11-16T03:07:30.831Z,7.51
2022-11-16T03:09:58.369Z,7.54
2022-11-16T03:12:29.308Z,7.53
2022-11-16T03:14:59.515Z,7.58
2022-11-16T03:17:41.789Z,7.60
2022-11-16T03:20:27.906Z,7.61
2022-11-16T03:22:58.804Z,7.61
2022-11-16T03:25:30.077Z,7.56
2022-11-16T03:27:56.908Z,7.59
2022-11-16T03:30:30.511Z,7.59
2022-11-16T03:33:18.092Z,7.59
2022-11-16T03:36:02.661Z,7.60
2022-11-16T03:38:30.681Z,7.60
2022-11-16T03:41:00.547Z,7.62
2022-11-16T03:43:28.108Z,7.63
2022-11-16T03:45:55.209Z,7.64
2022-11-16T03:48:21.982Z,7.64
2022-11-16T03:50:49.058Z,7.62
2022-11-16T03:53:15.919Z,7.61
2022-11-16T03:55:48.505Z,7.63
2022-11-16T03:58:18.654Z,7.62
2022-11-16T04:00:45.729Z,7.63
2022-11-16T04:03:12.668Z,7.62
2022-11-16T04:05:58.452Z,7.60
2022-11-16T04:08:44.384Z,7.51
2022-11-16T04:11:33.721Z,7.51
2022-11-16T04:14:19.360Z,7.55
2022-11-16T04:17:04.715Z,7.56
2022-11-16T04:19:51.773Z,7.57
2022-11-16T04:22:44.932Z,7.51
2022-11-16T04:25:16.343Z,7.53
2022-11-16T04:28:01.820Z,7.56
2022-11-16T04:30:48.657Z,7.51
2022-11-16T04:33:34.165Z,7.49
2022-11-16T04:36:20.859Z,7.51
2022-11-16T04:38:47.955Z,7.50
2022-11-16T04:41:33.981Z,7.47
2022-11-16T04:44:00.768Z,7.44
2022-11-16T04:46:47.694Z,7.46
2022-11-16T04:49:14.514Z,7.46
2022-11-16T04:51:41.351Z,7.47
2022-11-16T04:54:08.176Z,7.48
2022-11-16T04:56:34.996Z,7.49
2022-11-16T04:59:01.752Z,7.51
2022-11-16T05:01:49.410Z,7.51
2022-11-16T05:04:16.368Z,7.50
2022-11-16T05:06:43.162Z,7.55
2022-11-16T05:09:12.157Z,7.54
2022-11-16T05:11:38.996Z,7.56
2022-11-16T05:14:06.294Z,7.58
2022-11-16T05:16:34.134Z,7.59
2022-11-16T05:19:19.423Z,7.61
2022-11-16T05:21:46.300Z,7.63
2022-11-16T05:24:32.089Z,7.61
2022-11-16T05:26:59.155Z,7.62
2022-11-16T05:29:26.355Z,7.62
2022-11-16T05:31:58.656Z,7.59
2022-11-16T05:34:25.853Z,7.58
2022-11-16T05:36:52.828Z,7.56
2022-11-16T05:39:19.788Z,7.54
2022-11-16T05:41:47.291Z,7.56
2022-11-16T05:44:15.127Z,7.57
2022-11-16T05:46:42.516Z,7.56
2022-11-16T05:49:10.526Z,7.54
2022-11-16T05:51:39.445Z,7.54
2022-11-16T05:54:06.744Z,7.57
2022-11-16T05:56:34.788Z,7.58
2022-11-16T05:59:01.859Z,7.59
2022-11-16T06:01:28.994Z,7.59
2022-11-16T06:03:56.084Z,7.57
2022-11-16T06:06:22.943Z,7.57
2022-11-16T06:08:49.781Z,7.58
2022-11-16T06:11:16.611Z,7.57
2022-11-16T06:13:43.534Z,7.58
2022-11-16T06:16:10.485Z,7.58
2022-11-16T06:18:42.472Z,7.60
2022-11-16T06:21:10.502Z,7.59
2022-11-16T06:23:37.329Z,7.60
2022-11-16T06:26:05.101Z,7.56
2022-11-16T06:28:32.906Z,7.63
2022-11-16T06:31:00.276Z,7.58
2022-11-16T06:33:33.515Z,7.65
2022-11-16T06:36:02.305Z,7.64
2022-11-16T06:38:29.976Z,7.67
2022-11-16T06:40:58.481Z,7.70
2022-11-16T06:43:26.054Z,7.72
2022-11-16T06:45:55.216Z,7.73
2022-11-16T06:48:22.444Z,7.71
2022-11-16T06:50:50.551Z,7.70
2022-11-16T06:53:17.956Z,7.71
2022-11-16T06:55:45.082Z,7.72
2022-11-16T06:58:12.370Z,7.74
2022-11-16T07:00:39.502Z,7.75
2022-11-16T07:03:06.675Z,7.68
2022-11-16T07:05:33.581Z,7.68
2022-11-16T07:08:00.565Z,7.76
2022-11-16T07:10:27.483Z,7.79
2022-11-16T07:12:54.409Z,7.82
2022-11-16T07:15:21.272Z,7.86
2022-11-16T07:17:48.101Z,7.86
2022-11-16T07:20:15.172Z,7.88
2022-11-16T07:22:42.025Z,7.88
2022-11-16T07:25:09.347Z,7.91
2022-11-16T07:27:36.363Z,7.95
2022-11-16T07:30:03.887Z,7.90
2022-11-16T07:32:31.146Z,8.00
2022-11-16T07:34:59.480Z,8.00
2022-11-16T07:37:26.648Z,8.01
2022-11-16T07:39:53.638Z,7.93
2022-11-16T07:42:20.604Z,7.97
2022-11-16T07:44:47.353Z,7.98
2022-11-16T07:47:14.259Z,8.03
2022-11-16T07:49:41.220Z,8.03
2022-11-16T07:52:10.172Z,8.05
2022-11-16T07:54:37.231Z,8.06
2022-11-16T07:57:04.197Z,7.96
2022-11-16T07:59:31.168Z,7.95
2022-11-16T08:01:59.335Z,8.01
2022-11-16T08:04:26.424Z,8.04
2022-11-16T08:06:53.358Z,8.00
2022-11-16T08:09:20.358Z,8.07
2022-11-16T08:11:47.293Z,8.10
2022-11-16T08:14:15.412Z,8.11
2022-11-16T08:16:42.248Z,8.11
2022-11-16T08:19:09.159Z,8.13
2022-11-16T08:21:36.047Z,8.07
2022-11-16T08:24:03.053Z,8.15
2022-11-16T08:26:30.110Z,8.19
2022-11-16T08:28:57.280Z,8.18
2022-11-16T08:31:26.655Z,8.19
2022-11-16T08:33:53.754Z,8.24
2022-11-16T08:36:20.810Z,8.27
2022-11-16T08:38:48.642Z,8.14
2022-11-16T08:41:16.031Z,8.08
2022-11-16T08:43:44.618Z,8.12
2022-11-16T08:46:11.865Z,8.19
2022-11-16T08:48:39.202Z,8.22
2022-11-16T08:51:17.397Z,8.17
2022-11-16T08:53:48.072Z,8.20
2022-11-16T08:56:16.238Z,8.26
2022-11-16T08:58:53.785Z,8.20
2022-11-16T09:01:25.154Z,8.31
2022-11-16T09:03:52.726Z,8.35
2022-11-16T09:06:19.762Z,8.38
2022-11-16T09:08:47.093Z,8.35
2022-11-16T09:11:16.911Z,8.14
2022-11-16T09:13:45.323Z,8.23
2022-11-16T09:16:12.540Z,8.22
2022-11-16T09:18:39.839Z,8.16
2022-11-16T09:21:07.006Z,8.16
2022-11-16T09:23:34.139Z,8.18
2022-11-16T09:26:05.549Z,8.24
2022-11-16T09:28:33.101Z,8.27
2022-11-16T09:31:02.522Z,8.26
2022-11-16T09:33:30.525Z,8.27
2022-11-16T09:36:07.117Z,8.18
2022-11-16T09:38:55.785Z,8.12
2022-11-16T09:41:52.398Z,8.16
2022-11-16T09:44:46.758Z,8.12
2022-11-16T09:47:21.637Z,8.15
2022-11-16T09:50:01.501Z,8.18
2022-11-16T09:52:45.447Z,8.17
2022-11-16T09:55:26.600Z,8.27
2022-11-16T09:57:56.926Z,8.27
2022-11-16T10:00:24.422Z,8.21
2022-11-16T10:03:06.597Z,8.18
2022-11-16T10:05:43.428Z,8.23
2022-11-16T10:08:25.219Z,8.32
2022-11-16T10:11:11.967Z,8.33
2022-11-16T10:13:55.727Z,8.22
2022-11-16T10:16:49.864Z,8.15
2022-11-16T10:19:54.359Z,8.23
2022-11-16T10:22:53.251Z,8.31
2022-11-16T10:25:21.883Z,8.30
2022-11-16T10:28:34.137Z,8.34
2022-11-16T10:31:13.850Z,8.35
2022-11-16T10:33:42.859Z,8.20
2022-11-16T10:36:13.671Z,8.32
2022-11-16T10:38:41.779Z,8.32
2022-11-16T10:41:14.641Z,8.38
2022-11-16T10:43:42.438Z,8.43
2022-11-16T10:46:31.596Z,8.41
2022-11-16T10:49:18.731Z,8.44
2022-11-16T10:51:45.633Z,8.48
2022-11-16T10:54:14.101Z,8.49
2022-11-16T10:56:42.718Z,8.52
2022-11-16T10:59:14.225Z,8.38
2022-11-16T11:01:50.236Z,8.41
2022-11-16T11:04:18.710Z,8.50
2022-11-16T11:06:47.914Z,8.53
2022-11-16T11:09:14.859Z,8.60
2022-11-16T11:12:00.663Z,8.62
2022-11-16T11:14:27.475Z,8.67
2022-11-16T11:16:54.461Z,8.62
2022-11-16T11:19:27.521Z,8.63
2022-11-16T11:21:59.417Z,8.46
2022-11-16T11:24:44.109Z,8.56
2022-11-16T11:27:12.332Z,8.50
2022-11-16T11:29:41.785Z,8.60
2022-11-16T11:32:19.447Z,8.58
2022-11-16T11:35:00.357Z,8.57
2022-11-16T11:37:34.158Z,8.67
2022-11-16T11:40:09.843Z,8.71
2022-11-16T11:42:38.968Z,8.66
2022-11-16T11:45:08.249Z,8.70
2022-11-16T11:47:59.053Z,8.74
2022-11-16T11:50:39.157Z,8.70
2022-11-16T11:53:12.085Z,8.61
2022-11-16T11:55:39.206Z,8.59
2022-11-16T11:58:06.442Z,8.68
2022-11-16T12:00:56.816Z,8.67
2022-11-16T12:03:41.713Z,8.72
2022-11-16T12:06:10.144Z,8.64
2022-11-16T12:09:02.575Z,8.63
2022-11-16T12:11:33.168Z,8.62
2022-11-16T12:14:23.275Z,8.66
2022-11-16T12:16:53.138Z,8.77
2022-11-16T12:19:20.158Z,8.63
2022-11-16T12:22:28.632Z,8.66
2022-11-16T12:25:25.173Z,8.70
2022-11-16T12:28:04.135Z,8.78
2022-11-16T12:30:33.415Z,8.87
2022-11-16T12:33:18.013Z,8.89
2022-11-16T12:35:51.235Z,8.85
2022-11-16T12:38:23.100Z,8.87
2022-11-16T12:41:14.310Z,8.75
2022-11-16T12:44:00.257Z,8.77
2022-11-16T12:46:51.472Z,8.74
2022-11-16T12:50:00.071Z,8.80
2022-11-16T12:52:57.834Z,8.86
2022-11-16T12:55:43.913Z,8.91
2022-11-16T12:58:37.567Z,8.82
2022-11-16T13:01:37.671Z,8.69
2022-11-16T13:04:18.861Z,8.50
2022-11-16T13:06:52.021Z,8.74
2022-11-16T13:09:22.757Z,8.66
2022-11-16T13:11:55.834Z,8.58
2022-11-16T13:14:44.801Z,8.61
2022-11-16T13:17:21.479Z,8.35
2022-11-16T13:19:58.334Z,8.53
2022-11-16T13:22:26.927Z,8.55
2022-11-16T13:25:06.519Z,8.51
2022-11-16T13:27:38.372Z,8.52
2022-11-16T13:30:23.616Z,8.61
2022-11-16T13:33:22.612Z,8.63
2022-11-16T13:35:49.559Z,8.64
2022-11-16T13:38:54.282Z,8.59
2022-11-16T13:41:43.215Z,8.69
2022-11-16T13:44:14.703Z,8.77
2022-11-16T13:46:55.894Z,8.69
2022-11-16T13:49:30.903Z,8.67
2022-11-16T13:52:22.735Z,8.68
2022-11-16T13:54:55.786Z,8.60
2022-11-16T13:57:27.922Z,8.58
2022-11-16T14:00:00.562Z,8.63
2022-11-16T14:02:37.720Z,8.64
2022-11-16T14:05:06.678Z,8.59
2022-11-16T14:07:40.543Z,8.66
2022-11-16T14:10:08.115Z,8.67
2022-11-16T14:12:38.134Z,8.69
2022-11-16T14:15:25.261Z,8.60
2022-11-16T14:17:57.196Z,8.57
2022-11-16T14:20:53.276Z,8.50
2022-11-16T14:23:37.282Z,8.47
2022-11-16T14:26:38.508Z,8.44
2022-11-16T14:29:23.269Z,8.39
2022-11-16T14:31:57.922Z,8.40
2022-11-16T14:34:27.621Z,8.32
2022-11-16T14:36:55.149Z,8.29
2022-11-16T14:39:37.344Z,8.32
2022-11-16T14:42:24.305Z,8.34
2022-11-16T14:45:01.244Z,8.38
2022-11-16T14:47:29.747Z,8.37
2022-11-16T14:49:57.206Z,8.42
2022-11-16T14:52:36.200Z,8.48
2022-11-16T14:55:06.943Z,8.55
2022-11-16T14:57:33.716Z,8.59
2022-11-16T15:00:20.637Z,8.64
2022-11-16T15:02:51.893Z,8.54
2022-11-16T15:05:22.569Z,8.54
2022-11-16T15:07:51.713Z,8.53
2022-11-16T15:10:21.019Z,8.54
2022-11-16T15:12:51.696Z,8.49
2022-11-16T15:15:22.964Z,8.50
2022-11-16T15:18:08.186Z,8.55
2022-11-16T15:20:37.525Z,8.55
2022-11-16T15:23:06.245Z,8.57
2022-11-16T15:25:52.645Z,8.60
2022-11-16T15:28:23.583Z,8.63
2022-11-16T15:30:55.545Z,8.67
2022-11-16T15:33:28.441Z,8.65
2022-11-16T15:35:55.729Z,8.61
2022-11-16T15:38:32.982Z,8.57
2022-11-16T15:41:02.371Z,8.60
2022-11-16T15:43:49.583Z,8.58
2022-11-16T15:46:29.618Z,8.60
2022-11-16T15:48:57.248Z,8.64
2022-11-16T15:51:24.250Z,8.67
2022-11-16T15:53:53.984Z,8.61
2022-11-16T15:56:26.933Z,8.65
2022-11-16T15:59:01.803Z,8.59
2022-11-16T16:01:29.732Z,8.56
2022-11-16T16:04:03.208Z,8.57
2022-11-16T16:07:05.808Z,8.46
2022-11-16T16:09:40.564Z,8.59
2022-11-16T16:12:24.016Z,8.56
2022-11-16T16:14:52.206Z,8.58
2022-11-16T16:17:29.310Z,8.61
2022-11-16T16:20:01.295Z,8.60
2022-11-16T16:22:30.891Z,8.60
2022-11-16T16:24:58.108Z,8.59
2022-11-16T16:27:27.355Z,8.61
2022-11-16T16:29:57.197Z,8.60
2022-11-16T16:32:29.332Z,8.62
2022-11-16T16:34:58.275Z,8.60
2022-11-16T16:37:32.582Z,8.64
2022-11-16T16:40:00.076Z,8.64
2022-11-16T16:42:27.285Z,8.67
2022-11-16T16:44:54.216Z,8.68
2022-11-16T16:47:21.049Z,8.66
2022-11-16T16:49:49.108Z,8.64
2022-11-16T16:52:16.642Z,8.64
2022-11-16T16:57:01.339Z,8.61
2022-11-16T16:59:30.125Z,8.60
2022-11-16T17:01:57.831Z,8.57
2022-11-16T17:04:25.317Z,8.58
2022-11-16T17:06:53.214Z,8.58
2022-11-16T17:09:20.464Z,8.65
2022-11-16T17:11:48.067Z,8.66
2022-11-16T17:14:14.908Z,8.68
2022-11-16T17:16:41.890Z,8.66
2022-11-16T17:19:08.946Z,8.66
2022-11-16T17:21:36.137Z,8.68
2022-11-16T17:24:03.250Z,8.66
2022-11-16T17:26:30.189Z,8.66
2022-11-16T17:28:57.693Z,8.64
2022-11-16T17:31:25.607Z,8.66
2022-11-16T17:33:52.907Z,8.62
2022-11-16T17:36:20.478Z,8.60
2022-11-16T17:38:47.589Z,8.55
2022-11-16T17:41:16.785Z,8.55
2022-11-16T17:43:45.244Z,8.56
2022-11-16T17:46:17.822Z,8.50
2022-11-16T17:48:46.275Z,8.51
2022-11-16T17:51:20.826Z,8.50
2022-11-16T17:53:49.669Z,8.49
2022-11-16T17:56:19.499Z,8.47
2022-11-16T17:58:46.987Z,8.48
2022-11-16T18:01:14.978Z,8.49
2022-11-16T18:03:42.167Z,8.33
2022-11-16T18:06:13.397Z,8.44
2022-11-16T18:08:41.629Z,8.42
2022-11-16T18:11:28.451Z,8.45
2022-11-16T18:14:05.682Z,8.45
2022-11-16T18:16:34.132Z,8.47
2022-11-16T18:19:03.769Z,8.49
2022-11-16T18:21:31.718Z,8.49
2022-11-16T18:23:59.466Z,8.50
2022-11-16T18:26:26.391Z,8.52
2022-11-16T18:28:53.995Z,8.55
2022-11-16T18:31:22.992Z,8.56
2022-11-16T18:33:50.095Z,8.51
2022-11-16T18:36:18.495Z,8.55
2022-11-16T18:38:45.917Z,8.54
2022-11-16T18:41:12.949Z,8.55
2022-11-16T18:43:41.502Z,8.52
2022-11-16T18:46:10.087Z,8.56
2022-11-16T18:48:37.487Z,8.51
2022-11-16T18:51:04.828Z,8.52
2022-11-16T18:53:33.303Z,8.53
2022-11-16T18:56:00.735Z,8.52
2022-11-16T19:01:16.848Z,8.52
2022-11-16T19:03:44.094Z,8.54
2022-11-16T19:06:12.041Z,8.51
2022-11-16T19:08:40.345Z,8.45
2022-11-16T19:11:12.489Z,8.48
2022-11-16T19:13:42.620Z,8.46
2022-11-16T19:16:11.522Z,8.41
2022-11-16T19:18:39.157Z,8.38
2022-11-16T19:21:08.453Z,8.41
2022-11-16T19:23:42.957Z,8.48
2022-11-16T19:26:12.665Z,8.46
2022-11-16T19:28:41.854Z,8.35
2022-11-16T19:31:10.219Z,8.38
2022-11-16T19:33:37.952Z,8.35
2022-11-16T19:36:09.672Z,8.37
2022-11-16T19:38:38.090Z,8.36
2022-11-16T19:41:06.148Z,8.35
2022-11-16T19:43:33.867Z,8.35
2022-11-16T19:46:09.083Z,8.31
2022-11-16T19:48:36.206Z,8.32
2022-11-16T19:51:09.180Z,8.30
2022-11-16T19:53:37.463Z,8.22
2022-11-16T19:56:05.863Z,8.10
2022-11-16T19:58:38.271Z,8.07
2022-11-16T20:01:08.004Z,8.07
2022-11-16T20:03:35.410Z,8.06
2022-11-16T20:06:07.330Z,8.04
2022-11-16T20:08:35.247Z,8.04
2022-11-16T20:11:09.274Z,7.98
2022-11-16T20:13:39.293Z,8.05
2022-11-16T20:16:07.442Z,8.07
2022-11-16T20:18:35.440Z,8.14
2022-11-16T20:21:05.353Z,8.09
2022-11-16T20:23:37.469Z,8.16
2022-11-16T20:26:10.010Z,8.24
2022-11-16T20:28:38.838Z,8.27
2022-11-16T20:31:14.636Z,8.27
2022-11-16T20:33:42.476Z,8.30
2022-11-16T20:36:11.095Z,8.21
2022-11-16T20:38:39.091Z,8.23
2022-11-16T20:41:14.214Z,8.22
2022-11-16T20:43:42.456Z,8.19
2022-11-16T20:46:13.612Z,8.15
2022-11-16T20:48:42.497Z,8.17
2022-11-16T20:51:11.285Z,8.24
2022-11-16T20:53:38.753Z,8.20
2022-11-16T20:56:07.579Z,8.19
2022-11-16T20:58:35.058Z,8.16
2022-11-16T21:01:07.281Z,8.08
2022-11-16T21:03:34.991Z,8.05
2022-11-16T21:06:02.438Z,8.09
2022-11-16T21:08:32.556Z,8.08
2022-11-16T21:10:59.432Z,8.09
2022-11-16T21:13:44.893Z,8.17
2022-11-16T21:16:14.250Z,8.22
2022-11-16T21:18:41.399Z,8.25
2022-11-16T21:21:12.416Z,8.26
2022-11-16T21:23:44.948Z,8.27
2022-11-16T21:26:13.575Z,8.29
2022-11-16T21:28:41.273Z,8.27
2022-11-16T21:31:10.978Z,8.23
2022-11-16T21:33:38.218Z,8.23
2022-11-16T21:36:11.716Z,8.26
2022-11-16T21:38:39.033Z,8.26
2022-11-16T21:41:06.635Z,8.25
2022-11-16T21:43:36.262Z,8.25
2022-11-16T21:46:08.166Z,8.15
2022-11-16T21:48:36.254Z,8.06
2022-11-16T21:51:11.144Z,8.03
2022-11-16T21:53:38.604Z,7.97
2022-11-16T21:56:07.078Z,8.06
2022-11-16T21:58:33.902Z,8.10
2022-11-16T22:01:02.121Z,8.03
2022-11-16T22:03:31.267Z,8.00
2022-11-16T22:06:18.941Z,8.01
2022-11-16T22:08:46.407Z,7.97
2022-11-16T22:11:13.781Z,7.94
2022-11-16T22:13:40.980Z,8.00
2022-11-16T22:16:12.750Z,7.99
2022-11-16T22:18:39.687Z,8.07
2022-11-16T22:21:07.019Z,8.10
2022-11-16T22:23:35.537Z,8.05
2022-11-16T22:26:08.634Z,7.99
2022-11-16T22:28:36.146Z,8.06
2022-11-16T22:31:10.756Z,8.07
2022-11-16T22:33:37.978Z,8.12
2022-11-16T22:36:05.842Z,8.13
2022-11-16T22:38:33.728Z,8.14
2022-11-16T22:41:00.504Z,8.17
2022-11-16T22:43:28.927Z,8.18
2022-11-16T22:45:59.978Z,8.18
2022-11-16T22:48:34.263Z,8.15
2022-11-16T22:51:15.285Z,8.18
2022-11-16T22:53:42.170Z,8.19
2022-11-16T22:56:09.837Z,8.16
2022-11-16T22:58:37.930Z,8.18
2022-11-16T23:01:06.102Z,8.17
2022-11-16T23:03:33.279Z,8.13
2022-11-16T23:06:00.356Z,8.14
2022-11-16T23:08:27.473Z,8.11
2022-11-16T23:11:16.721Z,8.10
2022-11-16T23:14:02.669Z,8.09
2022-11-16T23:16:29.513Z,8.12
2022-11-16T23:18:56.704Z,8.12
2022-11-16T23:21:42.177Z,8.11
2022-11-16T23:24:32.149Z,8.12
2022-11-16T23:27:19.045Z,8.10
2022-11-16T23:29:46.026Z,8.12
2022-11-16T23:32:12.979Z,8.14
2022-11-16T23:34:39.715Z,8.15
2022-11-16T23:37:07.482Z,8.16
2022-11-16T23:39:34.512Z,8.17
2022-11-16T23:42:19.934Z,8.18
2022-11-16T23:44:46.850Z,8.20
2022-11-16T23:47:13.695Z,8.22
2022-11-16T23:49:40.830Z,8.21
2022-11-16T23:52:07.749Z,8.23
2022-11-16T23:54:34.518Z,8.23
2022-11-16T23:57:01.345Z,8.17
2022-11-16T23:59:30.316Z,8.14
